createdAt,value
2019-05-16T00:02:08.222Z,63.50
2019-05-16T00:04:37.876Z,63.50
2019-05-16T00:07:08.118Z,63.70
2019-05-16T00:09:38.181Z,63.70
2019-05-16T00:12:08.738Z,64.00
2019-05-16T00:14:38.621Z,64.10
2019-05-16T00:17:08.340Z,64.30
2019-05-16T00:19:38.122Z,64.40
2019-05-16T00:22:08.772Z,64.40
2019-05-16T00:24:38.164Z,64.50
2019-05-16T00:27:08.347Z,65.60
2019-05-16T00:29:38.295Z,65.10
2019-05-16T00:32:08.553Z,65.20
2019-05-16T00:34:38.484Z,65.10
2019-05-16T00:37:08.635Z,65.30
2019-05-16T00:39:38.793Z,65.40
2019-05-16T00:42:08.760Z,65.30
2019-05-16T00:44:38.693Z,65.50
2019-05-16T00:47:08.758Z,65.70
2019-05-16T00:49:38.547Z,65.90
2019-05-16T00:52:07.824Z,66.10
2019-05-16T00:54:38.375Z,66.20
2019-05-16T00:57:08.522Z,66.50
2019-05-16T00:59:38.710Z,66.70
2019-05-16T01:02:08.992Z,66.70
2019-05-16T01:04:38.199Z,66.80
2019-05-16T01:07:08.152Z,66.80
2019-05-16T01:09:38.540Z,67.00
2019-05-16T01:12:08.452Z,67.70
2019-05-16T01:14:38.482Z,66.60
2019-05-16T01:17:08.605Z,67.20
2019-05-16T01:19:38.088Z,67.20
2019-05-16T01:22:08.308Z,67.20
2019-05-16T01:24:41.159Z,67.30
2019-05-16T01:27:08.291Z,67.40
2019-05-16T01:29:38.518Z,67.50
2019-05-16T01:32:08.374Z,67.70
2019-05-16T01:34:37.861Z,67.80
2019-05-16T01:37:08.242Z,67.70
2019-05-16T01:39:38.210Z,67.90
2019-05-16T01:42:07.990Z,67.90
2019-05-16T01:44:38.171Z,68.10
2019-05-16T01:47:09.008Z,68.30
2019-05-16T01:49:38.152Z,67.50
2019-05-16T01:52:08.535Z,68.30
2019-05-16T01:54:38.901Z,68.30
2019-05-16T01:57:08.183Z,68.40
2019-05-16T01:59:37.965Z,68.30
2019-05-16T02:02:08.364Z,68.30
2019-05-16T02:04:37.975Z,68.40
2019-05-16T02:07:08.559Z,68.30
2019-05-16T02:09:38.382Z,68.40
2019-05-16T02:12:10.427Z,68.60
2019-05-16T02:14:38.787Z,68.50
2019-05-16T02:17:10.889Z,68.20
2019-05-16T02:19:38.565Z,68.10
2019-05-16T02:22:08.897Z,68.00
2019-05-16T02:24:38.842Z,67.90
2019-05-16T02:27:09.520Z,67.90
2019-05-16T02:29:40.127Z,67.90
2019-05-16T02:32:11.472Z,67.90
2019-05-16T02:34:41.714Z,68.10
2019-05-16T02:37:23.579Z,68.20
2019-05-16T02:39:41.151Z,68.50
2019-05-16T02:42:11.825Z,68.50
2019-05-16T02:44:41.440Z,68.90
2019-05-16T02:47:10.967Z,68.90
2019-05-16T02:49:42.025Z,69.00
2019-05-16T02:52:10.958Z,69.10
2019-05-16T02:54:41.313Z,69.10
2019-05-16T02:57:11.238Z,69.00
2019-05-16T02:59:41.621Z,69.00
2019-05-16T03:02:11.569Z,69.10
2019-05-16T03:04:44.021Z,69.20
2019-05-16T03:07:30.283Z,69.20
2019-05-16T03:09:43.866Z,68.90
2019-05-16T03:12:12.989Z,68.70
2019-05-16T03:14:42.728Z,68.90
2019-05-16T03:17:13.295Z,68.70
2019-05-16T03:19:43.993Z,68.50
2019-05-16T03:22:15.824Z,68.30
2019-05-16T03:24:44.790Z,67.90
2019-05-16T03:27:13.662Z,67.60
2019-05-16T03:29:42.823Z,67.50
2019-05-16T03:32:13.889Z,67.60
2019-05-16T03:34:44.069Z,67.50
2019-05-16T03:37:14.405Z,67.20
2019-05-16T03:39:43.332Z,66.90
2019-05-16T03:42:12.910Z,66.70
2019-05-16T03:44:41.869Z,67.00
2019-05-16T03:47:11.218Z,66.90
2019-05-16T03:49:42.283Z,66.80
2019-05-16T03:52:11.447Z,67.00
2019-05-16T03:54:42.002Z,67.10
2019-05-16T03:57:11.682Z,67.10
2019-05-16T03:59:40.962Z,67.30
2019-05-16T04:02:10.828Z,67.40
2019-05-16T04:04:41.787Z,67.40
2019-05-16T04:07:11.068Z,67.20
2019-05-16T04:09:41.124Z,67.20
2019-05-16T04:12:10.920Z,67.20
2019-05-16T04:14:40.975Z,67.20
2019-05-16T04:17:10.881Z,67.40
2019-05-16T04:19:41.563Z,67.50
2019-05-16T04:22:15.543Z,67.40
2019-05-16T04:24:45.449Z,67.30
2019-05-16T04:27:14.287Z,67.30
2019-05-16T04:29:43.303Z,67.10
2019-05-16T04:32:12.139Z,67.10
2019-05-16T04:34:41.794Z,66.80
2019-05-16T04:37:11.519Z,66.40
2019-05-16T04:39:41.461Z,66.40
2019-05-16T04:42:11.099Z,66.20
2019-05-16T04:44:41.717Z,66.00
2019-05-16T04:47:11.132Z,66.60
2019-05-16T04:49:41.140Z,65.60
2019-05-16T04:52:11.257Z,65.20
2019-05-16T04:54:41.872Z,64.70
2019-05-16T04:57:11.815Z,65.10
2019-05-16T04:59:41.889Z,64.00
2019-05-16T05:02:12.212Z,63.70
2019-05-16T05:04:41.558Z,63.30
2019-05-16T05:07:11.169Z,63.20
2019-05-16T05:09:41.012Z,63.20
2019-05-16T05:12:11.397Z,63.00
2019-05-16T05:14:41.550Z,62.70
2019-05-16T05:17:10.839Z,62.60
2019-05-16T05:19:41.480Z,62.10
2019-05-16T05:22:10.547Z,61.80
2019-05-16T05:24:40.566Z,61.80
2019-05-16T05:27:10.491Z,61.50
2019-05-16T05:29:39.926Z,60.80
2019-05-16T05:32:14.000Z,60.50
2019-05-16T05:34:39.919Z,59.90
2019-05-16T05:37:12.557Z,59.50
2019-05-16T05:39:39.765Z,59.20
2019-05-16T05:42:10.557Z,58.70
2019-05-16T05:44:40.132Z,58.30
2019-05-16T05:47:10.807Z,57.90
2019-05-16T05:49:40.475Z,57.50
2019-05-16T05:52:12.018Z,57.30
2019-05-16T05:54:40.759Z,57.00
2019-05-16T05:57:09.988Z,56.60
2019-05-16T05:59:40.486Z,56.50
2019-05-16T06:02:11.358Z,56.50
2019-05-16T06:04:40.058Z,57.00
2019-05-16T06:07:10.134Z,56.10
2019-05-16T06:09:50.454Z,55.80
2019-05-16T06:12:10.555Z,55.40
2019-05-16T06:14:41.847Z,55.00
2019-05-16T06:17:11.423Z,54.50
2019-05-16T06:19:40.581Z,54.70
2019-05-16T06:22:10.215Z,54.40
2019-05-16T06:24:39.894Z,54.30
2019-05-16T06:27:09.860Z,54.20
2019-05-16T06:29:40.259Z,54.30
2019-05-16T06:32:10.289Z,54.00
2019-05-16T06:34:40.424Z,53.70
2019-05-16T06:37:09.887Z,53.50
2019-05-16T06:39:42.679Z,53.30
2019-05-16T06:42:09.955Z,53.20
2019-05-16T06:44:40.104Z,53.20
2019-05-16T06:47:16.833Z,53.00
2019-05-16T06:49:40.809Z,52.50
2019-05-16T06:52:10.422Z,51.80
2019-05-16T06:54:40.737Z,51.50
2019-05-16T06:57:10.591Z,52.20
2019-05-16T06:59:40.491Z,51.40
2019-05-16T07:02:19.393Z,51.30
2019-05-16T07:04:41.587Z,50.80
2019-05-16T07:07:12.694Z,50.60
2019-05-16T07:09:57.013Z,50.60
2019-05-16T07:12:13.422Z,50.30
2019-05-16T07:14:42.334Z,49.80
2019-05-16T07:17:11.593Z,49.60
2019-05-16T07:19:40.828Z,50.00
2019-05-16T07:22:11.107Z,48.90
2019-05-16T07:24:40.336Z,48.40
2019-05-16T07:27:12.318Z,49.10
2019-05-16T07:29:40.239Z,48.50
2019-05-16T07:32:09.315Z,48.40
2019-05-16T07:34:40.222Z,47.90
2019-05-16T07:37:10.808Z,47.50
2019-05-16T07:39:41.840Z,47.20
2019-05-16T07:42:11.033Z,47.40
2019-05-16T07:44:40.826Z,47.20
2019-05-16T07:47:11.251Z,46.50
2019-05-16T07:49:40.760Z,46.10
2019-05-16T07:52:09.984Z,46.00
2019-05-16T07:54:40.408Z,46.10
2019-05-16T07:57:18.828Z,46.00
2019-05-16T07:59:40.495Z,45.90
2019-05-16T08:02:11.016Z,45.30
2019-05-16T08:04:40.645Z,45.20
2019-05-16T08:07:10.787Z,45.30
2019-05-16T08:09:39.853Z,44.90
2019-05-16T08:12:10.533Z,43.70
2019-05-16T08:14:40.933Z,43.50
2019-05-16T08:17:10.561Z,43.40
2019-05-16T08:19:40.094Z,43.00
2019-05-16T08:22:10.943Z,42.90
2019-05-16T08:24:40.266Z,42.70
2019-05-16T08:27:12.137Z,42.90
2019-05-16T08:29:40.450Z,42.50
2019-05-16T08:32:12.643Z,42.10
2019-05-16T08:34:41.677Z,41.60
2019-05-16T08:37:32.768Z,41.50
2019-05-16T08:39:41.465Z,41.00
2019-05-16T08:42:13.178Z,41.20
2019-05-16T08:44:41.930Z,41.00
2019-05-16T08:47:13.253Z,41.00
2019-05-16T08:49:42.482Z,40.70
2019-05-16T08:52:11.670Z,41.20
2019-05-16T08:54:43.717Z,40.80
2019-05-16T08:57:26.171Z,40.50
2019-05-16T08:59:45.875Z,40.60
2019-05-16T09:02:16.206Z,40.10
2019-05-16T09:04:45.101Z,40.10
2019-05-16T09:07:14.327Z,39.80
2019-05-16T09:09:49.496Z,39.80
2019-05-16T09:12:13.786Z,39.50
2019-05-16T09:14:42.750Z,39.40
2019-05-16T09:17:11.681Z,39.60
2019-05-16T09:19:40.573Z,39.20
2019-05-16T09:22:09.500Z,38.80
2019-05-16T09:24:38.483Z,38.70
2019-05-16T09:27:12.549Z,38.80
2019-05-16T09:29:37.937Z,38.60
2019-05-16T09:32:15.861Z,38.70
2019-05-16T09:34:38.084Z,38.50
2019-05-16T09:37:08.634Z,38.40
2019-05-16T09:39:37.703Z,38.00
2019-05-16T09:42:08.230Z,38.30
2019-05-16T09:44:37.358Z,38.60
2019-05-16T09:47:07.586Z,38.70
2019-05-16T09:49:37.193Z,38.60
2019-05-16T09:52:07.512Z,38.50
2019-05-16T09:54:37.857Z,38.30
2019-05-16T09:57:07.093Z,38.20
2019-05-16T09:59:37.067Z,37.90
2019-05-16T10:02:07.253Z,38.00
2019-05-16T10:04:36.916Z,37.80
2019-05-16T10:07:06.665Z,37.80
2019-05-16T10:09:42.124Z,38.00
2019-05-16T10:12:14.347Z,37.80
2019-05-16T10:14:37.783Z,37.30
2019-05-16T10:17:08.131Z,37.00
2019-05-16T10:19:37.119Z,37.20
2019-05-16T10:22:07.314Z,36.50
2019-05-16T10:24:37.532Z,37.20
2019-05-16T10:27:06.759Z,37.50
2019-05-16T10:29:37.746Z,37.00
2019-05-16T10:32:07.599Z,37.20
2019-05-16T10:34:37.100Z,36.50
2019-05-16T10:37:06.046Z,36.50
2019-05-16T10:39:37.258Z,36.60
2019-05-16T10:42:06.841Z,36.70
2019-05-16T10:44:38.499Z,36.50
2019-05-16T10:47:07.553Z,36.80
2019-05-16T10:49:40.906Z,36.70
2019-05-16T10:52:07.460Z,36.70
2019-05-16T10:54:37.009Z,36.00
2019-05-16T10:57:08.121Z,35.50
2019-05-16T10:59:57.898Z,36.40
2019-05-16T11:02:07.578Z,36.30
2019-05-16T11:04:52.707Z,35.90
2019-05-16T11:07:07.233Z,36.00
2019-05-16T11:09:39.139Z,35.80
2019-05-16T11:12:06.700Z,35.60
2019-05-16T11:14:37.031Z,35.20
2019-05-16T11:17:11.651Z,35.40
2019-05-16T11:19:37.229Z,35.30
2019-05-16T11:22:06.227Z,35.50
2019-05-16T11:24:37.563Z,35.50
2019-05-16T11:27:07.512Z,35.30
2019-05-16T11:29:36.682Z,35.00
2019-05-16T11:32:06.886Z,34.80
2019-05-16T11:34:37.416Z,35.00
2019-05-16T11:37:07.010Z,34.70
2019-05-16T11:39:37.140Z,35.10
2019-05-16T11:42:07.958Z,34.80
2019-05-16T11:44:38.112Z,34.60
2019-05-16T11:47:08.317Z,34.80
2019-05-16T11:49:37.512Z,35.20
2019-05-16T11:52:07.260Z,34.60
2019-05-16T11:54:37.350Z,34.80
2019-05-16T11:57:07.047Z,34.60
2019-05-16T11:59:37.360Z,34.30
2019-05-16T12:02:06.646Z,34.40
2019-05-16T12:04:37.508Z,34.30
2019-05-16T12:07:07.653Z,34.90
2019-05-16T12:09:47.010Z,34.70
2019-05-16T12:12:08.675Z,34.30
2019-05-16T12:14:37.964Z,34.30
2019-05-16T12:17:07.473Z,34.30
2019-05-16T12:19:43.597Z,34.60
2019-05-16T12:22:07.212Z,34.60
2019-05-16T12:24:38.721Z,34.30
2019-05-16T12:27:08.340Z,34.20
2019-05-16T12:29:37.467Z,33.90
2019-05-16T12:32:07.652Z,33.70
2019-05-16T12:34:37.118Z,33.70
2019-05-16T12:37:07.387Z,33.40
2019-05-16T12:39:37.921Z,33.00
2019-05-16T12:42:08.334Z,33.10
2019-05-16T12:44:37.750Z,33.50
2019-05-16T12:47:07.680Z,33.20
2019-05-16T12:49:36.735Z,33.00
2019-05-16T12:52:06.798Z,33.00
2019-05-16T12:54:36.958Z,32.90
2019-05-16T12:57:06.201Z,32.50
2019-05-16T12:59:36.862Z,32.90
2019-05-16T13:02:07.389Z,32.50
2019-05-16T13:04:37.783Z,32.10
2019-05-16T13:07:09.504Z,31.60
2019-05-16T13:09:37.290Z,31.50
2019-05-16T13:12:06.901Z,31.80
2019-05-16T13:14:40.159Z,31.90
2019-05-16T13:17:07.242Z,31.90
2019-05-16T13:19:43.250Z,31.50
2019-05-16T13:22:07.491Z,31.40
2019-05-16T13:24:38.424Z,32.20
2019-05-16T13:27:08.446Z,31.90
2019-05-16T13:29:37.584Z,31.50
2019-05-16T13:32:07.633Z,31.10
2019-05-16T13:34:38.091Z,31.40
2019-05-16T13:37:07.630Z,30.90
2019-05-16T13:39:36.778Z,30.50
2019-05-16T13:42:08.141Z,31.10
2019-05-16T13:44:37.625Z,31.70
2019-05-16T13:47:07.662Z,31.50
2019-05-16T13:49:38.446Z,31.70
2019-05-16T13:52:07.374Z,31.30
2019-05-16T13:54:36.442Z,30.90
2019-05-16T13:57:07.029Z,30.70
2019-05-16T13:59:37.378Z,30.80
2019-05-16T14:02:08.051Z,30.20
2019-05-16T14:04:37.326Z,30.30
2019-05-16T14:07:07.661Z,30.40
2019-05-16T14:09:37.780Z,30.10
2019-05-16T14:12:06.959Z,30.30
2019-05-16T14:14:41.351Z,30.70
2019-05-16T14:17:14.021Z,30.00
2019-05-16T14:19:37.656Z,30.10
2019-05-16T14:22:07.699Z,30.70
2019-05-16T14:24:37.237Z,30.60
2019-05-16T14:27:06.776Z,30.30
2019-05-16T14:29:37.661Z,29.70
2019-05-16T14:32:10.048Z,30.00
2019-05-16T14:34:38.572Z,29.30
2019-05-16T14:37:07.413Z,29.50
2019-05-16T14:39:38.787Z,29.50
2019-05-16T14:42:06.938Z,29.50
2019-05-16T14:44:57.624Z,30.30
2019-05-16T14:47:06.969Z,29.80
2019-05-16T14:49:37.409Z,29.70
2019-05-16T14:52:06.607Z,29.40
2019-05-16T14:54:37.720Z,29.00
2019-05-16T14:57:06.087Z,29.50
2019-05-16T14:59:36.472Z,29.90
2019-05-16T15:02:07.134Z,29.70
2019-05-16T15:04:37.583Z,29.40
2019-05-16T15:07:07.081Z,29.30
2019-05-16T15:09:38.081Z,29.60
2019-05-16T15:12:06.987Z,29.50
2019-05-16T15:14:37.499Z,29.10
2019-05-16T15:17:07.117Z,28.70
2019-05-16T15:19:36.070Z,29.00
2019-05-16T15:22:07.642Z,29.00
2019-05-16T15:24:37.056Z,28.90
2019-05-16T15:27:08.234Z,28.60
2019-05-16T15:29:37.741Z,28.70
2019-05-16T15:32:07.080Z,29.00
2019-05-16T15:34:38.066Z,28.90
2019-05-16T15:37:07.797Z,28.40
2019-05-16T15:39:37.504Z,28.50
2019-05-16T15:42:08.226Z,28.20
2019-05-16T15:44:37.291Z,28.50
2019-05-16T15:47:08.039Z,28.40
2019-05-16T15:49:37.740Z,28.40
2019-05-16T15:52:07.293Z,28.40
2019-05-16T15:54:37.661Z,28.30
2019-05-16T15:57:06.861Z,28.20
2019-05-16T15:59:37.649Z,28.20
2019-05-16T16:02:07.346Z,28.60
2019-05-16T16:04:37.348Z,28.70
2019-05-16T16:07:07.684Z,28.70
2019-05-16T16:09:37.817Z,28.40
2019-05-16T16:12:10.451Z,28.60
2019-05-16T16:14:37.636Z,28.80
2019-05-16T16:17:06.781Z,28.60
2019-05-16T16:19:37.155Z,28.30
2019-05-16T16:22:07.711Z,27.90
2019-05-16T16:24:36.956Z,28.20
2019-05-16T16:27:08.138Z,28.60
2019-05-16T16:29:37.070Z,28.70
2019-05-16T16:32:06.529Z,28.60
2019-05-16T16:34:36.745Z,28.60
2019-05-16T16:37:07.593Z,28.70
2019-05-16T16:39:37.774Z,28.50
2019-05-16T16:42:07.681Z,28.00
2019-05-16T16:44:36.679Z,28.20
2019-05-16T16:47:06.732Z,28.10
2019-05-16T16:49:39.529Z,27.70
2019-05-16T16:52:07.575Z,28.10
2019-05-16T16:54:37.123Z,28.10
2019-05-16T16:57:07.771Z,28.10
2019-05-16T16:59:37.421Z,27.80
2019-05-16T17:02:07.966Z,28.00
2019-05-16T17:04:38.858Z,28.00
2019-05-16T17:07:07.391Z,27.90
2019-05-16T17:09:37.187Z,27.90
2019-05-16T17:12:06.693Z,27.60
2019-05-16T17:14:37.015Z,27.20
2019-05-16T17:17:07.057Z,27.20
2019-05-16T17:19:36.728Z,27.00
2019-05-16T17:22:14.699Z,26.80
2019-05-16T17:24:36.645Z,26.40
2019-05-16T17:27:07.811Z,26.80
2019-05-16T17:29:36.989Z,26.80
2019-05-16T17:32:09.934Z,26.20
2019-05-16T17:34:37.284Z,25.80
2019-05-16T17:37:09.432Z,25.80
2019-05-16T17:39:36.981Z,25.40
2019-05-16T17:42:07.625Z,25.00
2019-05-16T17:44:36.521Z,24.90
2019-05-16T17:47:07.071Z,24.60
2019-05-16T17:49:37.171Z,24.00
2019-05-16T17:52:06.940Z,23.30
2019-05-16T17:54:37.350Z,22.70
2019-05-16T17:57:07.435Z,22.50
2019-05-16T17:59:37.929Z,22.30
2019-05-16T18:02:07.040Z,22.70
2019-05-16T18:04:37.613Z,23.10
2019-05-16T18:07:07.342Z,22.50
2019-05-16T18:09:36.850Z,22.40
2019-05-16T18:12:06.924Z,22.30
2019-05-16T18:14:37.269Z,22.00
2019-05-16T18:17:07.622Z,21.80
2019-05-16T18:19:38.333Z,21.40
2019-05-16T18:22:07.187Z,21.80
2019-05-16T18:24:37.055Z,21.70
2019-05-16T18:27:06.799Z,21.40
2019-05-16T18:29:36.532Z,21.60
2019-05-16T18:32:06.942Z,21.60
2019-05-16T18:34:37.698Z,21.20
2019-05-16T18:37:06.969Z,21.30
2019-05-16T18:39:36.868Z,21.70
2019-05-16T18:42:06.043Z,21.80
2019-05-16T18:44:36.597Z,22.10
2019-05-16T18:47:10.429Z,22.70
2019-05-16T18:49:36.835Z,22.80
2019-05-16T18:52:06.549Z,22.90
2019-05-16T18:54:37.589Z,23.30
2019-05-16T18:57:06.993Z,24.00
2019-05-16T18:59:36.885Z,24.50
2019-05-16T19:02:09.735Z,24.90
2019-05-16T19:04:37.910Z,25.30
2019-05-16T19:07:07.841Z,25.70
2019-05-16T19:09:37.551Z,25.90
2019-05-16T19:12:06.708Z,26.20
2019-05-16T19:14:36.901Z,26.10
2019-05-16T19:17:20.673Z,26.40
2019-05-16T19:19:37.662Z,26.90
2019-05-16T19:22:06.758Z,27.20
2019-05-16T19:24:35.645Z,27.50
2019-05-16T19:27:06.539Z,27.80
2019-05-16T19:29:36.860Z,28.00
2019-05-16T19:32:06.664Z,28.20
2019-05-16T19:34:35.927Z,28.40
2019-05-16T19:37:06.793Z,28.60
2019-05-16T19:39:37.287Z,28.90
2019-05-16T19:42:06.512Z,29.20
2019-05-16T19:44:37.072Z,29.40
2019-05-16T19:47:07.107Z,29.70
2019-05-16T19:49:37.030Z,29.60
2019-05-16T19:52:07.252Z,29.90
2019-05-16T19:54:36.513Z,30.10
2019-05-16T19:57:07.261Z,30.40
2019-05-16T19:59:36.711Z,30.70
2019-05-16T20:02:07.673Z,31.00
2019-05-16T20:04:36.650Z,31.30
2019-05-16T20:07:07.409Z,31.50
2019-05-16T20:09:36.593Z,31.70
2019-05-16T20:12:07.534Z,31.90
2019-05-16T20:14:36.637Z,32.10
2019-05-16T20:17:07.358Z,32.40
2019-05-16T20:19:36.505Z,32.40
2019-05-16T20:22:07.507Z,32.60
2019-05-16T20:24:36.302Z,32.70
2019-05-16T20:27:05.881Z,32.80
2019-05-16T20:29:36.734Z,32.90
2019-05-16T20:32:07.778Z,33.20
2019-05-16T20:34:37.166Z,33.30
2019-05-16T20:37:09.065Z,33.40
2019-05-16T20:39:37.176Z,33.90
2019-05-16T20:42:07.705Z,34.10
2019-05-16T20:44:37.297Z,34.10
2019-05-16T20:47:07.198Z,34.30
2019-05-16T20:49:37.351Z,34.70
2019-05-16T20:52:07.044Z,34.70
2019-05-16T20:54:37.627Z,34.70
2019-05-16T20:57:06.894Z,34.80
2019-05-16T20:59:35.839Z,35.00
2019-05-16T21:02:06.915Z,35.10
2019-05-16T21:04:37.439Z,35.30
2019-05-16T21:07:10.817Z,35.50
2019-05-16T21:09:36.977Z,35.80
2019-05-16T21:12:08.056Z,36.00
2019-05-16T21:14:36.575Z,35.90
2019-05-16T21:17:06.713Z,36.20
2019-05-16T21:19:36.294Z,36.20
2019-05-16T21:22:07.299Z,36.20
2019-05-16T21:24:37.347Z,36.50
2019-05-16T21:27:06.370Z,36.70
2019-05-16T21:29:36.959Z,36.90
2019-05-16T21:32:07.423Z,37.30
2019-05-16T21:34:36.593Z,37.10
2019-05-16T21:37:15.717Z,37.30
2019-05-16T21:39:36.909Z,37.40
2019-05-16T21:42:07.474Z,37.70
2019-05-16T21:44:37.407Z,37.50
2019-05-16T21:47:06.472Z,37.80
2019-05-16T21:49:37.045Z,37.70
2019-05-16T21:52:05.992Z,37.80
2019-05-16T21:54:36.783Z,38.20
2019-05-16T21:57:05.516Z,38.40
2019-05-16T21:59:34.380Z,38.70
2019-05-16T22:02:03.735Z,38.90
2019-05-16T22:04:32.608Z,39.00
2019-05-16T22:07:01.601Z,39.10
2019-05-16T22:09:30.569Z,39.50
2019-05-16T22:11:59.459Z,39.70
2019-05-16T22:14:31.283Z,39.60
2019-05-16T22:17:00.243Z,40.20
2019-05-16T22:19:29.088Z,39.90
2019-05-16T22:21:58.500Z,40.00
2019-05-16T22:24:27.659Z,40.10
2019-05-16T22:26:57.138Z,40.50
2019-05-16T22:29:26.447Z,40.70
2019-05-16T22:31:55.468Z,40.70
2019-05-16T22:34:26.353Z,41.20
2019-05-16T22:36:57.132Z,41.70
2019-05-16T22:39:27.093Z,41.60
2019-05-16T22:41:55.987Z,41.80
2019-05-16T22:44:26.968Z,42.00
2019-05-16T22:46:55.397Z,42.00
2019-05-16T22:49:24.297Z,42.10
2019-05-16T22:51:53.231Z,42.20
2019-05-16T22:54:22.181Z,42.50
2019-05-16T22:56:51.052Z,42.60
2019-05-16T22:59:19.956Z,42.70
2019-05-16T23:01:48.919Z,43.00
2019-05-16T23:04:17.789Z,43.00
2019-05-16T23:06:46.670Z,43.40
2019-05-16T23:09:16.400Z,44.00
2019-05-16T23:11:45.452Z,44.40
2019-05-16T23:14:16.880Z,44.10
2019-05-16T23:16:46.464Z,44.20
2019-05-16T23:19:17.237Z,44.30
2019-05-16T23:21:47.464Z,44.50
2019-05-16T23:24:17.238Z,44.60
2019-05-16T23:26:47.007Z,45.20
2019-05-16T23:29:17.000Z,45.70
2019-05-16T23:31:47.236Z,45.90
2019-05-16T23:34:18.551Z,46.30
2019-05-16T23:36:47.059Z,47.00
2019-05-16T23:39:15.975Z,46.40
2019-05-16T23:41:47.403Z,46.40
2019-05-16T23:44:16.624Z,46.60
2019-05-16T23:46:47.098Z,46.30
2019-05-16T23:49:16.781Z,46.10
2019-05-16T23:51:47.345Z,46.60
2019-05-16T23:54:17.278Z,47.00
2019-05-16T23:56:46.626Z,47.20
2019-05-16T23:59:17.161Z,47.60
